aviador You're here:

SEGU Decoded Metar

GUAYAQUIL in ECUADOR
Report Time2018-02-22 14:00:00
UTC Time2018-02-22 15:00:44
Flight Rules vfr VFR
Wind230° at 04 kt
W.Decomp.*RWY 21: 3.7 kt HW 1.4 kt RCW
W.Rank230° ranks 3
Current wind is below 230° avg. (7.0)
Visibility9999 m
Phenomena:N/A
Clouds:Few 026 Hf
Broken 100 Hf
Expected CloudBase > 2,000 ft AGL from Temp-Dew spread
Ceiling10,000 ft
Temp28°C (ISA +13)
Dew Point23°C (74% RH)
Heat Index31.2°C
QNH1013 hPa
Density Alt1,903 ft
Elevation30 ft
Report Wrong Elevation
Raw Report
SEGU 221400Z 23004KT 160V290 9999 FEW026 BKN100 28/23 Q1013 NOSIG
RMK A2992=

Extra information for SEGU:More info

Metar Taf Metar & Taf Last 4 Metars F.Rules Stats Wind Profile Meteogram Temp Stats Airport Information Weather charts Add Link Nearby VenuesMetar ALERT Operation Metar Decoded Social comments